Portada
METAR-TAF:

METAR-TAF

Aeropuertos :

Bagdad, Iraq

Aeropuerto Internacional de Bagdad

latitud: 33-15-45N, longitud: 44-14-04E, altitud: 35 m

Observación

El informe se hizo hace 10 minutos, a las 18:00 UTC
Viento 2 kt con dirección variable
Temperatura 15°C
Humedad 72%
Presión 1010 hPa
Visibilidad 10 km o más
sin nubes por debajo de 1500 m y sin presencia de cumulonimbus.

METAR: ORBI 241800Z VRB02KT CAVOK 15/10 Q1010 NOSIG

Hora: 21:10 (18:10 UTC)

Pronóstico

El informe se hizo hace 2 horas y 10 minutos, a las 16:00 UTC
Pronóstico válido del 24 a las 18 UTC al 25 a las 18 UTC
Viento 6 kt del norte-noroeste
Visibilidad: 7000 m
Nubes dispersas a una altura de 3500 ft
Evolucionando progresivamente
del 25 a las 02 UTC al 25 a las 04 UTC
Visibilidad: 3000 m
neblina
Evolucionando progresivamente
del 25 a las 07 UTC al 25 a las 09 UTC
Visibilidad: 7000 m

TAF: ORBI 241600Z 2418/2518 33006KT 7000 SCT035 BECMG 2502/2504 3000 BR BECMG 2507/2509 7000 NSW

Observaciones y pronósticos meteorológicos de más de 4000 aeropuertos (mensajes METAR y TAF).

Los puntos amarillos y rojos representan las estaciones disponibles.

Ponga el ratón en el punto deseado para ver el nombre de la estación.

Haga clic para ver las observaciones y los pronósticos meteorológicos.

Para cambiar el mapa : haga clic en los botones verdes con una cruz de color negro para hacer un zoom, en el botón verde con un guión para alejar o en las flechas verdes para mapas adyacentes.


METAR-TAF: